createdAt,value
2017-06-18T11:35:12.576Z,80
2017-06-18T11:35:53.180Z,80
2017-06-18T11:36:33.828Z,80
2017-06-18T11:37:14.425Z,80
2017-06-18T11:37:56.607Z,80
2017-06-18T11:38:37.200Z,80
2017-06-18T11:39:36.087Z,85
2017-06-18T11:40:16.714Z,85
2017-06-18T11:40:58.730Z,85
2017-06-18T11:41:41.882Z,85
2017-06-18T11:42:22.571Z,85
2017-06-18T11:43:07.722Z,85
2017-06-18T11:43:48.352Z,85
2017-06-18T11:44:28.960Z,85
2017-06-18T11:45:09.560Z,85
2017-06-18T11:45:50.130Z,85
2017-06-18T11:46:30.724Z,85
2017-06-18T11:47:11.355Z,85
2017-06-18T11:47:51.990Z,85
2017-06-18T11:48:32.610Z,85
2017-06-18T11:49:13.288Z,85
2017-06-18T11:49:53.871Z,85
2017-06-18T11:50:34.496Z,85
2017-06-18T11:51:15.123Z,85
2017-06-18T11:51:55.743Z,85
2017-06-18T11:52:36.332Z,85
2017-06-18T11:53:16.954Z,85
2017-06-18T11:53:57.532Z,85
2017-06-18T11:54:38.129Z,85
2017-06-18T11:55:18.892Z,85
2017-06-18T11:55:59.442Z,85
2017-06-18T11:56:40.062Z,90
2017-06-18T11:57:20.686Z,85
2017-06-18T11:58:01.256Z,90
2017-06-18T11:58:41.852Z,90
2017-06-18T11:59:22.434Z,90
2017-06-18T12:00:03.023Z,90
2017-06-18T12:00:43.617Z,90
2017-06-18T12:01:24.235Z,90
2017-06-18T12:02:04.841Z,90
2017-06-18T12:02:45.445Z,90
2017-06-18T12:03:26.161Z,90
2017-06-18T12:04:06.917Z,90
2017-06-18T12:04:50.087Z,90
2017-06-18T12:06:01.878Z,90
2017-06-18T12:06:51.326Z,90
2017-06-18T12:07:33.907Z,90
2017-06-18T12:08:18.169Z,90
2017-06-18T12:10:08.967Z,90
2017-06-18T12:10:53.040Z,90
2017-06-18T12:11:35.364Z,90
2017-06-18T12:12:16.627Z,90
2017-06-18T12:12:58.532Z,90
2017-06-18T12:13:40.818Z,90
2017-06-18T12:14:21.949Z,90
2017-06-18T12:15:02.936Z,90
2017-06-18T12:15:43.505Z,90
2017-06-18T12:16:24.073Z,90
2017-06-18T12:17:04.659Z,90
2017-06-18T12:17:45.820Z,90
2017-06-18T12:18:26.690Z,90
2017-06-18T12:19:07.369Z,95
2017-06-18T12:19:48.196Z,95
2017-06-18T12:20:29.093Z,95
2017-06-18T12:21:09.855Z,95
2017-06-18T12:21:50.697Z,95
2017-06-18T12:22:32.703Z,95
2017-06-18T12:23:13.537Z,95
2017-06-18T12:23:54.429Z,100
2017-06-18T12:24:35.206Z,100
2017-06-18T12:25:15.881Z,100
2017-06-18T12:25:56.489Z,95
2017-06-18T12:26:37.418Z,95
2017-06-18T12:27:18.049Z,95
2017-06-18T12:27:59.204Z,95
2017-06-18T12:28:39.303Z,95
2017-06-18T12:29:19.890Z,95
2017-06-18T12:30:00.469Z,95
2017-06-18T12:30:41.048Z,95
2017-06-18T12:31:21.625Z,95
2017-06-18T12:32:02.225Z,95
2017-06-18T12:32:43.005Z,95
2017-06-18T18:50:55.375Z,15
2017-06-18T18:51:36.037Z,15
2017-06-18T18:52:18.518Z,15
2017-06-18T18:53:02.042Z,15
2017-06-18T18:53:42.764Z,15
2017-06-18T18:54:23.457Z,15
2017-06-18T18:55:04.068Z,15
2017-06-18T18:55:49.021Z,15
2017-06-18T18:56:29.631Z,15
2017-06-18T18:57:10.261Z,15
2017-06-18T18:57:50.891Z,15
2017-06-18T18:58:31.485Z,15
2017-06-18T18:59:12.075Z,10
2017-06-18T18:59:52.667Z,10
2017-06-18T19:00:33.258Z,10
2017-06-18T19:01:13.873Z,10
2017-06-18T19:01:54.473Z,10
2017-06-18T19:02:35.133Z,10
2017-06-18T19:03:15.745Z,10
2017-06-18T19:03:56.348Z,10
2017-06-18T19:04:36.987Z,10
2017-06-18T19:05:17.603Z,10
2017-06-18T19:05:58.214Z,10
2017-06-18T19:06:38.875Z,10
2017-06-18T19:07:19.563Z,10
2017-06-18T19:08:00.210Z,10
2017-06-18T19:08:40.837Z,10
2017-06-18T19:09:21.470Z,5
2017-06-18T19:10:02.094Z,5
2017-06-18T19:10:42.705Z,5
2017-06-18T19:11:23.305Z,5
2017-06-18T19:12:03.922Z,5
2017-06-18T19:12:44.552Z,5
2017-06-18T19:13:25.153Z,5
2017-06-18T19:14:05.758Z,5
2017-06-18T19:14:46.345Z,5
2017-06-18T19:15:26.952Z,5
2017-06-18T19:16:07.540Z,5
2017-06-18T19:16:48.143Z,5
2017-06-18T19:17:28.805Z,5
2017-06-18T19:18:09.408Z,5
2017-06-18T19:18:50.037Z,5
2017-06-18T19:19:30.637Z,5
2017-06-18T19:20:11.327Z,5
2017-06-18T19:20:52.192Z,5
2017-06-18T19:21:32.750Z,5
2017-06-18T19:22:13.324Z,5
2017-06-18T19:22:53.951Z,5
2017-06-18T19:23:36.444Z,5
2017-06-18T19:24:17.145Z,0
2017-06-18T19:24:57.737Z,0
2017-06-18T19:25:38.997Z,0
2017-06-18T19:26:19.608Z,0
2017-06-18T19:27:00.195Z,0
2017-06-18T19:27:40.913Z,0
2017-06-18T19:28:21.499Z,0
2017-06-18T19:29:02.106Z,0
2017-06-18T19:29:42.776Z,0
2017-06-18T19:30:23.357Z,0
2017-06-18T19:31:03.939Z,0
2017-06-18T19:31:44.524Z,0
2017-06-18T19:32:25.115Z,0
2017-06-18T19:33:06.316Z,0
2017-06-18T19:33:47.176Z,0
2017-06-18T19:34:32.203Z,0
2017-06-18T19:35:12.793Z,0
2017-06-18T19:35:53.413Z,0
2017-06-18T19:36:34.060Z,0
2017-06-18T19:37:14.665Z,0
2017-06-18T19:37:55.281Z,0
2017-06-18T19:38:35.859Z,0
2017-06-18T19:39:16.436Z,0
2017-06-18T19:39:57.015Z,0
2017-06-18T19:40:37.591Z,0
2017-06-18T19:41:18.179Z,0
2017-06-18T19:41:58.768Z,0
2017-06-18T19:42:39.365Z,0
2017-06-18T19:43:19.999Z,0
2017-06-18T19:44:00.583Z,0
2017-06-18T19:44:41.166Z,0
2017-06-18T19:45:21.790Z,0
2017-06-18T19:46:02.358Z,0
2017-06-18T19:46:42.943Z,0
2017-06-18T19:47:23.525Z,0
2017-06-18T19:48:04.123Z,0
2017-06-18T19:48:44.712Z,0
2017-06-18T19:49:25.398Z,0
2017-06-18T19:50:05.917Z,0
2017-06-18T19:50:46.506Z,0
2017-06-18T19:51:27.100Z,0
2017-06-18T19:52:07.724Z,0
2017-06-18T19:52:48.311Z,0
2017-06-18T19:53:28.898Z,0
2017-06-18T19:54:09.496Z,0
2017-06-18T19:54:50.077Z,0
2017-06-18T19:55:30.666Z,0
2017-06-18T19:56:11.256Z,0
2017-06-18T19:56:51.852Z,0
2017-06-18T19:57:32.441Z,0
2017-06-18T19:58:13.052Z,0
2017-06-18T19:58:53.646Z,0
2017-06-18T19:59:34.233Z,0
2017-06-18T20:00:14.836Z,0
2017-06-18T20:00:57.175Z,0
2017-06-18T20:01:37.762Z,0
2017-06-18T20:02:18.393Z,0
2017-06-18T20:02:59.021Z,0
2017-06-18T20:03:39.775Z,0
2017-06-18T20:04:20.379Z,0
2017-06-18T20:05:01.057Z,0
2017-06-18T20:05:41.648Z,0
2017-06-18T20:06:22.319Z,0
2017-06-18T20:07:02.907Z,0
2017-06-18T20:07:43.491Z,0
2017-06-18T20:08:24.103Z,0
2017-06-18T20:09:04.688Z,0
2017-06-18T20:09:45.291Z,0
2017-06-18T20:10:25.886Z,0
2017-06-18T20:11:06.481Z,0
2017-06-18T20:11:47.060Z,0
2017-06-18T20:12:27.662Z,0
2017-06-18T20:13:08.247Z,0
2017-06-18T20:13:48.856Z,0
2017-06-18T20:14:29.439Z,0
2017-06-18T20:15:10.023Z,0
2017-06-18T20:15:50.600Z,0
2017-06-18T20:16:31.188Z,0
2017-06-18T20:17:11.781Z,0
2017-06-18T20:17:52.378Z,0
2017-06-18T20:18:32.957Z,0
2017-06-18T20:19:13.608Z,0
2017-06-18T20:19:54.247Z,0
2017-06-18T20:20:34.850Z,0
2017-06-18T20:21:15.438Z,0
2017-06-18T20:21:56.031Z,0
2017-06-18T20:22:36.640Z,0
2017-06-18T20:23:17.229Z,0
2017-06-18T20:23:57.820Z,0
2017-06-18T20:24:38.401Z,0
2017-06-18T20:25:18.996Z,0
2017-06-18T20:25:59.620Z,0
2017-06-18T20:26:40.213Z,0
2017-06-18T20:27:20.825Z,0
2017-06-18T20:28:01.460Z,0
2017-06-18T20:28:42.059Z,0
2017-06-18T20:29:22.649Z,0
2017-06-18T20:30:03.270Z,0
2017-06-18T20:30:43.854Z,0
2017-06-18T20:31:24.431Z,0
2017-06-18T20:32:05.019Z,0
2017-06-18T20:32:45.625Z,0
2017-06-18T20:33:26.218Z,0
2017-06-18T20:34:06.806Z,0
2017-06-18T20:34:47.411Z,0
2017-06-18T20:35:28.042Z,0
2017-06-18T20:36:08.615Z,0
2017-06-18T20:36:49.237Z,0
2017-06-18T20:37:29.832Z,0
2017-06-18T20:38:10.429Z,0
2017-06-18T20:38:51.008Z,0
2017-06-18T20:39:31.605Z,0
2017-06-18T20:40:12.262Z,0
2017-06-18T20:40:52.830Z,0
2017-06-18T20:41:33.402Z,0
2017-06-18T20:42:14.011Z,0
2017-06-18T20:42:54.594Z,0
2017-06-18T20:43:35.193Z,0
2017-06-18T20:44:15.788Z,0
2017-06-18T20:44:56.453Z,0
2017-06-18T20:45:37.024Z,0
2017-06-18T20:46:17.616Z,0
2017-06-18T20:46:58.194Z,0
2017-06-18T20:47:38.790Z,0
2017-06-18T20:48:19.394Z,0
2017-06-18T20:48:59.977Z,0
2017-06-18T20:49:40.559Z,0
2017-06-18T20:50:21.138Z,0
2017-06-18T20:51:01.729Z,0
2017-06-18T20:51:43.129Z,0
2017-06-18T20:52:25.455Z,0
2017-06-18T20:53:06.032Z,0
2017-06-18T20:53:46.616Z,0
2017-06-18T20:54:27.219Z,0
2017-06-18T20:55:07.832Z,0
2017-06-18T20:55:48.441Z,0
2017-06-18T20:56:29.033Z,0
2017-06-18T20:57:09.639Z,0
2017-06-18T20:57:50.243Z,0
2017-06-18T20:58:30.851Z,0
2017-06-18T20:59:11.426Z,0
2017-06-18T20:59:52.101Z,0
2017-06-18T21:00:32.848Z,0
2017-06-18T21:01:13.515Z,0
2017-06-18T21:01:54.177Z,0
2017-06-18T21:02:34.763Z,0
2017-06-18T21:03:15.347Z,0
2017-06-18T21:03:55.977Z,0
2017-06-18T21:04:36.563Z,0
2017-06-18T21:05:17.179Z,0
2017-06-18T21:05:58.234Z,0
2017-06-18T21:06:38.881Z,0
2017-06-18T21:07:19.494Z,0
2017-06-18T21:08:00.161Z,0
2017-06-18T21:08:44.541Z,0
2017-06-18T21:09:26.301Z,0
2017-06-18T21:10:07.685Z,0
2017-06-18T21:10:51.186Z,0
2017-06-18T21:11:33.808Z,0
2017-06-18T21:12:15.406Z,0
2017-06-18T21:12:56.919Z,0
2017-06-18T21:13:37.986Z,0
2017-06-18T21:14:19.485Z,0
2017-06-18T21:15:01.466Z,0
2017-06-18T21:15:41.937Z,0
2017-06-18T21:16:27.048Z,0
2017-06-18T21:17:07.342Z,0
2017-06-18T21:17:48.407Z,0
2017-06-18T21:57:08.251Z,0
2017-06-18T21:57:49.272Z,0
2017-06-18T21:58:29.858Z,0
2017-06-18T21:59:10.637Z,0
2017-06-18T21:59:51.347Z,0
2017-06-18T22:00:32.053Z,0
2017-06-18T22:01:12.800Z,0
2017-06-18T22:01:53.471Z,0
2017-06-18T22:02:34.314Z,0
2017-06-18T22:03:15.178Z,0
2017-06-18T22:03:55.816Z,0
2017-06-18T22:04:36.746Z,0
2017-06-18T22:05:17.660Z,0
2017-06-18T22:05:58.276Z,0
2017-06-18T22:06:38.893Z,0
2017-06-18T22:07:19.619Z,0
2017-06-18T22:08:00.256Z,0
2017-06-18T22:08:41.078Z,0
2017-06-18T22:09:21.808Z,0
2017-06-18T22:10:02.394Z,0
2017-06-18T22:10:43.081Z,0
2017-06-18T22:11:23.819Z,0
2017-06-18T22:12:04.558Z,0
2017-06-18T22:12:45.366Z,0
2017-06-18T22:13:26.273Z,0
2017-06-18T22:14:06.977Z,0
2017-06-18T22:14:47.665Z,0
2017-06-18T22:15:28.332Z,0
2017-06-18T22:16:09.027Z,0
2017-06-18T22:16:49.668Z,0
2017-06-18T22:17:30.405Z,0
2017-06-18T22:18:11.078Z,0
2017-06-18T22:18:51.747Z,0
2017-06-18T22:19:32.482Z,0
2017-06-18T22:20:13.152Z,0
2017-06-18T22:20:53.881Z,0
2017-06-18T22:21:34.546Z,0
2017-06-18T22:22:15.221Z,0
2017-06-18T22:22:55.988Z,0
2017-06-18T22:23:36.637Z,0
2017-06-18T22:24:17.442Z,0
2017-06-18T22:24:58.064Z,0
2017-06-18T22:25:38.684Z,0
2017-06-18T22:26:19.356Z,0
2017-06-18T22:27:00.066Z,0
2017-06-18T22:27:40.746Z,0
2017-06-18T22:28:21.371Z,0
2017-06-18T22:29:02.105Z,0
2017-06-18T22:29:42.695Z,0
2017-06-18T22:30:23.351Z,0
2017-06-18T22:31:04.123Z,0
2017-06-18T22:31:44.847Z,0
2017-06-18T22:32:25.474Z,0
2017-06-18T22:33:06.244Z,0
2017-06-18T22:33:47.055Z,0
2017-06-18T22:34:27.841Z,0
2017-06-18T22:35:08.611Z,0
2017-06-18T22:35:49.352Z,0
2017-06-18T22:36:30.019Z,0
2017-06-18T22:37:10.728Z,0
2017-06-18T22:37:51.479Z,0
2017-06-18T22:38:32.164Z,0
2017-06-18T22:39:12.821Z,0
2017-06-18T22:39:53.464Z,0
2017-06-18T22:40:34.091Z,0
2017-06-18T22:41:14.782Z,0
2017-06-18T22:41:55.426Z,0
2017-06-18T22:42:36.173Z,0
2017-06-18T22:43:16.758Z,0
2017-06-18T22:43:57.363Z,0
2017-06-18T22:44:37.945Z,0
2017-06-18T22:45:18.567Z,0
2017-06-18T22:45:59.158Z,0
2017-06-18T22:46:39.744Z,0
2017-06-18T22:47:20.361Z,0
2017-06-18T22:48:00.931Z,0
2017-06-18T22:48:41.520Z,0
2017-06-18T22:49:22.103Z,0
2017-06-18T22:50:02.690Z,0
2017-06-18T22:50:43.268Z,0
2017-06-18T22:51:23.878Z,0
2017-06-18T22:52:04.471Z,0
2017-06-18T22:52:45.054Z,0
2017-06-18T22:53:25.643Z,0
2017-06-18T22:54:06.249Z,0
2017-06-18T22:54:46.871Z,0
2017-06-18T22:55:27.476Z,0
2017-06-18T22:56:08.090Z,0
2017-06-18T22:56:48.670Z,0
2017-06-18T22:57:29.260Z,0
2017-06-18T22:58:09.834Z,0
2017-06-18T22:58:50.435Z,0
2017-06-18T22:59:31.020Z,0
2017-06-18T23:00:11.620Z,0
2017-06-18T23:00:52.217Z,0
2017-06-18T23:01:32.788Z,0
2017-06-18T23:02:13.391Z,0
2017-06-18T23:02:53.984Z,0
2017-06-18T23:03:34.592Z,0
2017-06-18T23:04:15.191Z,0
2017-06-18T23:04:55.776Z,0
2017-06-18T23:05:36.370Z,0
2017-06-18T23:06:16.949Z,0
2017-06-18T23:06:57.692Z,0
2017-06-18T23:07:38.161Z,0
2017-06-18T23:08:18.766Z,0
2017-06-18T23:08:59.350Z,0
2017-06-18T23:09:39.931Z,0
2017-06-18T23:10:20.539Z,0
2017-06-18T23:11:01.141Z,0
2017-06-18T23:11:41.739Z,0
2017-06-18T23:12:22.347Z,0
2017-06-18T23:13:02.927Z,0
2017-06-18T23:13:43.506Z,0
2017-06-18T23:14:24.097Z,0
2017-06-18T23:15:04.691Z,0
2017-06-18T23:15:45.286Z,0
2017-06-18T23:16:25.892Z,0
2017-06-18T23:17:06.462Z,0
2017-06-18T23:17:47.057Z,0
2017-06-18T23:18:27.668Z,0
2017-06-18T23:19:08.280Z,0
2017-06-18T23:19:48.866Z,0
2017-06-18T23:20:29.464Z,0
2017-06-18T23:21:10.063Z,0
2017-06-18T23:21:50.652Z,0
2017-06-18T23:22:31.263Z,0
2017-06-18T23:23:12.083Z,0
2017-06-18T23:23:52.687Z,0
2017-06-18T23:24:33.297Z,0
2017-06-18T23:25:13.885Z,0
2017-06-18T23:25:54.499Z,0
2017-06-18T23:26:35.102Z,0
2017-06-18T23:27:15.707Z,0
2017-06-18T23:27:56.295Z,0
2017-06-18T23:28:36.888Z,0
2017-06-18T23:29:17.476Z,0
2017-06-18T23:29:58.076Z,0
2017-06-18T23:30:38.643Z,0
2017-06-18T23:31:19.236Z,0
2017-06-18T23:31:59.823Z,0
2017-06-18T23:32:40.440Z,0
2017-06-18T23:33:21.025Z,0
2017-06-18T23:34:01.633Z,0
2017-06-18T23:34:42.215Z,0
2017-06-18T23:35:22.800Z,0
2017-06-18T23:36:03.494Z,0
2017-06-18T23:36:44.072Z,0
2017-06-18T23:37:24.672Z,0
2017-06-18T23:38:05.259Z,0
2017-06-18T23:38:45.827Z,0
2017-06-18T23:39:26.426Z,0
2017-06-18T23:40:07.027Z,0
2017-06-18T23:40:47.601Z,0
2017-06-18T23:41:28.181Z,0
2017-06-18T23:42:08.762Z,0
2017-06-18T23:42:49.355Z,0
2017-06-18T23:43:29.925Z,0
2017-06-18T23:44:10.517Z,0
2017-06-18T23:44:51.089Z,0
2017-06-18T23:45:31.678Z,0
2017-06-18T23:46:12.257Z,0
2017-06-18T23:46:52.836Z,0
2017-06-18T23:47:33.415Z,0
2017-06-18T23:48:14.029Z,0
2017-06-18T23:48:54.608Z,0
2017-06-18T23:49:35.194Z,0
2017-06-18T23:50:15.791Z,0
2017-06-18T23:50:56.575Z,0
2017-06-18T23:51:37.185Z,0
2017-06-18T23:52:17.782Z,0
2017-06-18T23:52:58.396Z,0
2017-06-18T23:53:38.985Z,0
2017-06-18T23:54:19.574Z,0
2017-06-18T23:55:00.161Z,0
2017-06-18T23:55:40.941Z,0
2017-06-18T23:56:21.524Z,0
2017-06-18T23:57:02.108Z,0
2017-06-18T23:57:42.708Z,0
2017-06-18T23:58:23.284Z,0
2017-06-18T23:59:03.882Z,0
2017-06-18T23:59:44.473Z,0
